Terminal Aerodrome Forecast
Issued by NWS Memphis, TN

Home | Current Version | Previous Version | Text Only | Print | Product List | Glossary On
Versions: 1 2 3 4 5 6 7 8 9 10 11 12 13 14 15 16 17 18
000
FTUS44 KMEG 271741
TAFMKL
TAF
KMKL 271741Z 2718/2818 02010KT P6SM SCT035 BKN250
     FM280000 02008KT P6SM BKN090 OVC250
     FM281300 06007KT P6SM BKN050 OVC080=

USA.gov is the U.S. government's official web portal to all federal, state and local government web resources and services.